Platzwetter Flugplatz Wels

Flugwetter Linz LOWL

[Quelle: ADDS]
METAR
LOWL 252320Z AUTO 27009KT 7000 FEW005 BKN006 M00/M01 Q1031 =
LOWL 252315Z 2600/2624 27006KT 9000 OVC011 TX02/2612Z TNM01/2606Z TEMPO 2600/2608 4000 OVC005 TEMPO 2608/2624 28011KT BKN016
TAF
LOWL 252315Z 2600/2624 27006KT 9000 OVC011 TX02/2612Z TNM01/2606Z TEMPO 2600/2608 4000 OVC005 TEMPO 2608/2624 28011KT BKN016 =

Flugwetter Salzburg LOWS

[Quelle: ADDS]
METAR
LOWS 252320Z AUTO 16004KT 1700 R15/P1500U BR FEW001 BKN002 M02/M02 Q1031 =
LOWS 252315Z 2600/2624 VRB02KT 5000 BKN003 TX03/2614Z TNM04/2605Z TEMPO 2600/2609 0200 FZFG BKN001 TEMPO 2609/2618 4000 BKN005 PROB30 TEMPO 2611/2616 6000 SCT005 PROB40 TEMPO 2619/2624 0700 FZFG
TAF
LOWS 252315Z 2600/2624 VRB02KT 5000 BKN003 TX03/2614Z TNM04/2605Z TEMPO 2600/2609 0200 FZFG BKN001 TEMPO 2609/2618 4000 BKN005 PROB30 TEMPO 2611/2616 6000 SCT005 PROB40 TEMPO 2619/2624 0700 FZFG =

Wind - Verlauf

Windrichtung - Verlauf

Temperatur - Verlauf

Relative Luftfeuchtigkeit - Verlauf

Luftdruck - Verlauf

Wir benutzen Cookies

Wir nutzen Cookies auf unserer Website. Einige von ihnen sind essenziell für den Betrieb der Seite, während andere uns helfen, diese Website und die Nutzererfahrung zu verbessern (Tracking Cookies). Sie können selbst entscheiden, ob Sie die Cookies zulassen möchten. Bitte beachten Sie, dass bei einer Ablehnung womöglich nicht mehr alle Funktionalitäten der Seite zur Verfügung stehen.